Terminal Aerodrome Forecast
Issued by NWS Albany, NY

Home | Current Version | Previous Version | Text Only | Print | Product List | Glossary On
Versions: 1 2 3 4 5 6 7 8 9 10 11 12 13 14 15 16 17 18 19
670
FTUS41 KALY 131720
TAFALB
TAF
KALB 131720Z 1318/1418 30020G32KT P6SM FEW045
     FM140000 31015G25KT P6SM FEW040
     FM141000 32010KT P6SM FEW035
     FM141400 31012KT P6SM SKC=

USA.gov is the U.S. government's official web portal to all federal, state and local government web resources and services.